sensor_id;sensor_type;location;lat;lon;timestamp;temperature;humidity
23079;DHT22;11707;50.830;4.364;2024-02-21T00:01:58;9.90;99.90
23079;DHT22;11707;50.830;4.364;2024-02-21T00:04:24;9.90;99.90
23079;DHT22;11707;50.830;4.364;2024-02-21T00:06:49;9.90;99.90
23079;DHT22;11707;50.830;4.364;2024-02-21T00:09:15;9.90;99.90
23079;DHT22;11707;50.830;4.364;2024-02-21T00:11:41;9.80;99.90
23079;DHT22;11707;50.830;4.364;2024-02-21T00:14:06;9.80;99.90
23079;DHT22;11707;50.830;4.364;2024-02-21T00:16:32;9.80;99.90
23079;DHT22;11707;50.830;4.364;2024-02-21T00:18:58;9.80;99.90
23079;DHT22;11707;50.830;4.364;2024-02-21T00:21:23;9.80;99.90
23079;DHT22;11707;50.830;4.364;2024-02-21T00:23:49;10.00;99.90
23079;DHT22;11707;50.830;4.364;2024-02-21T00:26:18;9.90;99.90
23079;DHT22;11707;50.830;4.364;2024-02-21T00:28:44;10.00;99.90
23079;DHT22;11707;50.830;4.364;2024-02-21T00:31:10;10.10;97.00
23079;DHT22;11707;50.830;4.364;2024-02-21T00:33:36;10.10;95.00
23079;DHT22;11707;50.830;4.364;2024-02-21T00:36:02;10.10;96.70
23079;DHT22;11707;50.830;4.364;2024-02-21T00:38:27;10.20;96.40
23079;DHT22;11707;50.830;4.364;2024-02-21T00:40:54;10.20;92.40
23079;DHT22;11707;50.830;4.364;2024-02-21T00:43:20;10.30;90.70
23079;DHT22;11707;50.830;4.364;2024-02-21T00:45:51;10.30;90.80
23079;DHT22;11707;50.830;4.364;2024-02-21T00:48:17;10.30;90.80
23079;DHT22;11707;50.830;4.364;2024-02-21T00:50:45;10.30;92.80
23079;DHT22;11707;50.830;4.364;2024-02-21T00:53:13;10.30;93.20
23079;DHT22;11707;50.830;4.364;2024-02-21T00:55:39;10.20;92.80
23079;DHT22;11707;50.830;4.364;2024-02-21T00:58:05;10.30;92.60
23079;DHT22;11707;50.830;4.364;2024-02-21T01:00:31;10.40;91.20
23079;DHT22;11707;50.830;4.364;2024-02-21T01:02:57;10.40;85.70
23079;DHT22;11707;50.830;4.364;2024-02-21T01:05:25;10.50;87.20
23079;DHT22;11707;50.830;4.364;2024-02-21T01:07:55;10.50;85.50
23079;DHT22;11707;50.830;4.364;2024-02-21T01:10:20;10.60;82.30
23079;DHT22;11707;50.830;4.364;2024-02-21T01:12:46;10.50;80.60
23079;DHT22;11707;50.830;4.364;2024-02-21T01:15:12;10.40;87.80
23079;DHT22;11707;50.830;4.364;2024-02-21T01:17:38;10.40;90.20
23079;DHT22;11707;50.830;4.364;2024-02-21T01:20:06;10.30;90.40
23079;DHT22;11707;50.830;4.364;2024-02-21T01:22:32;10.20;91.80
23079;DHT22;11707;50.830;4.364;2024-02-21T01:24:58;10.10;93.80
23079;DHT22;11707;50.830;4.364;2024-02-21T01:27:24;10.10;93.40
23079;DHT22;11707;50.830;4.364;2024-02-21T01:29:49;10.20;93.50
23079;DHT22;11707;50.830;4.364;2024-02-21T01:32:16;10.00;93.20
23079;DHT22;11707;50.830;4.364;2024-02-21T01:34:41;9.80;96.90
23079;DHT22;11707;50.830;4.364;2024-02-21T01:37:07;9.90;97.70
23079;DHT22;11707;50.830;4.364;2024-02-21T01:39:36;9.90;96.60
23079;DHT22;11707;50.830;4.364;2024-02-21T01:42:02;9.90;96.40
23079;DHT22;11707;50.830;4.364;2024-02-21T01:44:28;10.00;96.80
23079;DHT22;11707;50.830;4.364;2024-02-21T01:46:54;10.10;94.80
23079;DHT22;11707;50.830;4.364;2024-02-21T01:49:21;10.20;93.40
23079;DHT22;11707;50.830;4.364;2024-02-21T01:51:47;10.20;92.40
23079;DHT22;11707;50.830;4.364;2024-02-21T01:54:17;10.10;92.80
23079;DHT22;11707;50.830;4.364;2024-02-21T01:56:44;10.10;94.60
23079;DHT22;11707;50.830;4.364;2024-02-21T01:59:13;10.20;94.00
23079;DHT22;11707;50.830;4.364;2024-02-21T02:01:41;10.20;92.00
23079;DHT22;11707;50.830;4.364;2024-02-21T02:04:07;10.20;92.70
23079;DHT22;11707;50.830;4.364;2024-02-21T02:06:34;10.00;94.90
23079;DHT22;11707;50.830;4.364;2024-02-21T02:09:00;9.90;96.80
23079;DHT22;11707;50.830;4.364;2024-02-21T02:11:26;9.90;96.40
23079;DHT22;11707;50.830;4.364;2024-02-21T02:13:51;10.10;96.70
23079;DHT22;11707;50.830;4.364;2024-02-21T02:16:17;10.00;95.00
23079;DHT22;11707;50.830;4.364;2024-02-21T02:18:43;10.00;93.40
23079;DHT22;11707;50.830;4.364;2024-02-21T02:21:28;10.10;94.00
23079;DHT22;11707;50.830;4.364;2024-02-21T02:23:55;10.10;94.10
23079;DHT22;11707;50.830;4.364;2024-02-21T02:26:20;10.10;93.30
23079;DHT22;11707;50.830;4.364;2024-02-21T02:28:46;10.10;92.90
23079;DHT22;11707;50.830;4.364;2024-02-21T02:31:12;10.10;92.90
23079;DHT22;11707;50.830;4.364;2024-02-21T02:33:37;10.20;91.00
23079;DHT22;11707;50.830;4.364;2024-02-21T02:36:03;10.20;89.80
23079;DHT22;11707;50.830;4.364;2024-02-21T02:38:29;10.20;90.50
23079;DHT22;11707;50.830;4.364;2024-02-21T02:40:55;10.30;86.60
23079;DHT22;11707;50.830;4.364;2024-02-21T02:43:23;10.20;90.40
23079;DHT22;11707;50.830;4.364;2024-02-21T02:45:51;10.20;89.00
23079;DHT22;11707;50.830;4.364;2024-02-21T02:48:16;10.10;91.20
23079;DHT22;11707;50.830;4.364;2024-02-21T02:50:42;10.30;86.00
23079;DHT22;11707;50.830;4.364;2024-02-21T02:53:07;10.10;87.90
23079;DHT22;11707;50.830;4.364;2024-02-21T02:55:33;10.20;85.90
23079;DHT22;11707;50.830;4.364;2024-02-21T02:58:00;10.10;85.00
23079;DHT22;11707;50.830;4.364;2024-02-21T03:00:26;10.10;90.70
23079;DHT22;11707;50.830;4.364;2024-02-21T03:02:52;10.00;92.10
23079;DHT22;11707;50.830;4.364;2024-02-21T03:05:20;10.10;93.20
23079;DHT22;11707;50.830;4.364;2024-02-21T03:07:46;10.20;91.20
23079;DHT22;11707;50.830;4.364;2024-02-21T03:10:12;10.20;89.30
23079;DHT22;11707;50.830;4.364;2024-02-21T03:12:39;10.40;87.30
23079;DHT22;11707;50.830;4.364;2024-02-21T03:15:05;10.40;78.70
23079;DHT22;11707;50.830;4.364;2024-02-21T03:17:32;10.30;78.00
23079;DHT22;11707;50.830;4.364;2024-02-21T03:20:02;10.30;82.50
23079;DHT22;11707;50.830;4.364;2024-02-21T03:22:31;10.30;82.20
23079;DHT22;11707;50.830;4.364;2024-02-21T03:25:00;10.20;83.20
23079;DHT22;11707;50.830;4.364;2024-02-21T03:27:28;10.30;85.80
23079;DHT22;11707;50.830;4.364;2024-02-21T03:29:53;10.30;77.30
23079;DHT22;11707;50.830;4.364;2024-02-21T03:32:21;10.30;76.40
23079;DHT22;11707;50.830;4.364;2024-02-21T03:34:49;10.10;86.30
23079;DHT22;11707;50.830;4.364;2024-02-21T03:37:15;10.10;85.30
23079;DHT22;11707;50.830;4.364;2024-02-21T03:39:41;10.20;87.30
23079;DHT22;11707;50.830;4.364;2024-02-21T03:42:07;10.20;85.20
23079;DHT22;11707;50.830;4.364;2024-02-21T03:44:34;10.10;82.00
23079;DHT22;11707;50.830;4.364;2024-02-21T03:47:00;10.10;88.60
23079;DHT22;11707;50.830;4.364;2024-02-21T03:49:26;10.00;90.70
23079;DHT22;11707;50.830;4.364;2024-02-21T03:51:52;10.10;90.20
23079;DHT22;11707;50.830;4.364;2024-02-21T03:54:18;10.10;86.80
23079;DHT22;11707;50.830;4.364;2024-02-21T03:56:43;10.10;82.30
23079;DHT22;11707;50.830;4.364;2024-02-21T03:59:09;10.20;88.50
23079;DHT22;11707;50.830;4.364;2024-02-21T04:01:35;10.00;87.10
23079;DHT22;11707;50.830;4.364;2024-02-21T04:04:01;9.80;91.80
23079;DHT22;11707;50.830;4.364;2024-02-21T04:06:27;9.80;94.80
23079;DHT22;11707;50.830;4.364;2024-02-21T04:08:53;9.80;96.10
23079;DHT22;11707;50.830;4.364;2024-02-21T04:11:19;9.60;97.60
23079;DHT22;11707;50.830;4.364;2024-02-21T04:13:45;9.60;98.80
23079;DHT22;11707;50.830;4.364;2024-02-21T04:16:14;9.50;99.90
23079;DHT22;11707;50.830;4.364;2024-02-21T04:18:40;9.50;99.90
23079;DHT22;11707;50.830;4.364;2024-02-21T04:21:05;9.60;99.90
23079;DHT22;11707;50.830;4.364;2024-02-21T04:23:31;9.70;99.80
23079;DHT22;11707;50.830;4.364;2024-02-21T04:25:57;9.80;97.60
23079;DHT22;11707;50.830;4.364;2024-02-21T04:28:25;9.80;96.90
23079;DHT22;11707;50.830;4.364;2024-02-21T04:30:50;9.80;97.00
23079;DHT22;11707;50.830;4.364;2024-02-21T04:33:18;9.80;96.80
23079;DHT22;11707;50.830;4.364;2024-02-21T04:35:44;9.90;95.90
23079;DHT22;11707;50.830;4.364;2024-02-21T04:38:10;9.80;94.90
23079;DHT22;11707;50.830;4.364;2024-02-21T04:40:36;9.90;96.20
23079;DHT22;11707;50.830;4.364;2024-02-21T04:43:03;9.80;94.80
23079;DHT22;11707;50.830;4.364;2024-02-21T04:45:28;9.70;97.60
23079;DHT22;11707;50.830;4.364;2024-02-21T04:47:54;9.60;98.70
23079;DHT22;11707;50.830;4.364;2024-02-21T04:50:20;9.60;99.60
23079;DHT22;11707;50.830;4.364;2024-02-21T04:52:45;9.50;99.90
23079;DHT22;11707;50.830;4.364;2024-02-21T04:55:11;9.30;99.90
23079;DHT22;11707;50.830;4.364;2024-02-21T04:57:37;9.40;99.90
23079;DHT22;11707;50.830;4.364;2024-02-21T05:00:03;9.50;99.90
23079;DHT22;11707;50.830;4.364;2024-02-21T05:02:29;9.60;99.60
23079;DHT22;11707;50.830;4.364;2024-02-21T05:04:55;9.60;96.70
23079;DHT22;11707;50.830;4.364;2024-02-21T05:07:21;9.50;98.90
23079;DHT22;11707;50.830;4.364;2024-02-21T05:09:49;9.60;98.30
23079;DHT22;11707;50.830;4.364;2024-02-21T05:12:15;9.50;97.40
23079;DHT22;11707;50.830;4.364;2024-02-21T05:14:41;9.40;99.00
23079;DHT22;11707;50.830;4.364;2024-02-21T05:17:09;9.40;97.90
23079;DHT22;11707;50.830;4.364;2024-02-21T05:19:39;9.40;98.50
23079;DHT22;11707;50.830;4.364;2024-02-21T05:22:04;9.40;99.20
23079;DHT22;11707;50.830;4.364;2024-02-21T05:24:30;9.30;99.50
23079;DHT22;11707;50.830;4.364;2024-02-21T05:26:56;9.40;99.90
23079;DHT22;11707;50.830;4.364;2024-02-21T05:29:22;9.50;99.20
23079;DHT22;11707;50.830;4.364;2024-02-21T05:34:19;9.40;99.60
23079;DHT22;11707;50.830;4.364;2024-02-21T05:36:47;9.50;98.30
23079;DHT22;11707;50.830;4.364;2024-02-21T05:39:15;9.40;98.40
23079;DHT22;11707;50.830;4.364;2024-02-21T05:41:42;9.40;99.50
23079;DHT22;11707;50.830;4.364;2024-02-21T05:44:11;9.50;99.90
23079;DHT22;11707;50.830;4.364;2024-02-21T05:46:36;9.50;98.50
23079;DHT22;11707;50.830;4.364;2024-02-21T05:49:02;9.60;98.00
23079;DHT22;11707;50.830;4.364;2024-02-21T05:51:32;9.70;97.40
23079;DHT22;11707;50.830;4.364;2024-02-21T05:53:58;9.60;95.90
23079;DHT22;11707;50.830;4.364;2024-02-21T05:56:24;9.60;95.80
23079;DHT22;11707;50.830;4.364;2024-02-21T05:58:50;9.50;96.20
23079;DHT22;11707;50.830;4.364;2024-02-21T06:01:15;9.60;96.50
23079;DHT22;11707;50.830;4.364;2024-02-21T06:03:41;9.70;95.90
23079;DHT22;11707;50.830;4.364;2024-02-21T06:06:07;9.70;95.30
23079;DHT22;11707;50.830;4.364;2024-02-21T06:08:35;9.70;94.50
23079;DHT22;11707;50.830;4.364;2024-02-21T06:11:03;9.80;95.70
23079;DHT22;11707;50.830;4.364;2024-02-21T06:13:29;9.90;93.40
23079;DHT22;11707;50.830;4.364;2024-02-21T06:15:54;9.80;91.70
23079;DHT22;11707;50.830;4.364;2024-02-21T06:18:22;9.70;93.00
23079;DHT22;11707;50.830;4.364;2024-02-21T06:20:48;9.80;95.60
23079;DHT22;11707;50.830;4.364;2024-02-21T06:23:16;9.80;94.50
23079;DHT22;11707;50.830;4.364;2024-02-21T06:25:44;9.90;91.80
23079;DHT22;11707;50.830;4.364;2024-02-21T06:28:10;10.10;90.60
23079;DHT22;11707;50.830;4.364;2024-02-21T06:30:36;10.20;88.40
23079;DHT22;11707;50.830;4.364;2024-02-21T06:33:01;10.10;90.20
23079;DHT22;11707;50.830;4.364;2024-02-21T06:35:28;10.20;89.40
23079;DHT22;11707;50.830;4.364;2024-02-21T06:37:54;10.30;86.80
23079;DHT22;11707;50.830;4.364;2024-02-21T06:40:23;10.20;88.10
23079;DHT22;11707;50.830;4.364;2024-02-21T06:42:49;10.20;91.50
23079;DHT22;11707;50.830;4.364;2024-02-21T06:45:15;10.20;92.40
23079;DHT22;11707;50.830;4.364;2024-02-21T06:47:41;10.20;94.50
23079;DHT22;11707;50.830;4.364;2024-02-21T06:50:08;10.10;95.70
23079;DHT22;11707;50.830;4.364;2024-02-21T06:52:36;10.10;97.90
23079;DHT22;11707;50.830;4.364;2024-02-21T06:55:02;10.10;99.70
23079;DHT22;11707;50.830;4.364;2024-02-21T06:57:31;10.10;99.90
23079;DHT22;11707;50.830;4.364;2024-02-21T06:59:56;10.10;99.90
23079;DHT22;11707;50.830;4.364;2024-02-21T07:02:22;10.00;99.90
23079;DHT22;11707;50.830;4.364;2024-02-21T07:04:48;10.00;99.90
23079;DHT22;11707;50.830;4.364;2024-02-21T07:07:14;10.00;99.90
23079;DHT22;11707;50.830;4.364;2024-02-21T07:09:42;9.90;99.90
23079;DHT22;11707;50.830;4.364;2024-02-21T07:12:07;9.90;99.90
23079;DHT22;11707;50.830;4.364;2024-02-21T07:14:33;9.90;99.90
23079;DHT22;11707;50.830;4.364;2024-02-21T07:17:01;9.80;99.90
23079;DHT22;11707;50.830;4.364;2024-02-21T07:19:27;9.90;99.90
23079;DHT22;11707;50.830;4.364;2024-02-21T07:21:55;9.80;99.90
23079;DHT22;11707;50.830;4.364;2024-02-21T07:24:24;9.80;99.90
23079;DHT22;11707;50.830;4.364;2024-02-21T07:26:50;9.70;99.90
23079;DHT22;11707;50.830;4.364;2024-02-21T07:29:16;9.70;99.90
23079;DHT22;11707;50.830;4.364;2024-02-21T07:31:42;9.60;99.90
23079;DHT22;11707;50.830;4.364;2024-02-21T07:34:08;9.60;99.90
23079;DHT22;11707;50.830;4.364;2024-02-21T07:36:35;9.60;99.90
23079;DHT22;11707;50.830;4.364;2024-02-21T07:39:01;9.60;99.90
23079;DHT22;11707;50.830;4.364;2024-02-21T07:41:26;9.60;99.90
23079;DHT22;11707;50.830;4.364;2024-02-21T07:43:54;9.80;99.90
23079;DHT22;11707;50.830;4.364;2024-02-21T07:46:21;9.70;99.90
23079;DHT22;11707;50.830;4.364;2024-02-21T07:48:48;9.50;99.90
23079;DHT22;11707;50.830;4.364;2024-02-21T07:51:13;9.70;99.90
23079;DHT22;11707;50.830;4.364;2024-02-21T07:53:39;9.80;99.90
23079;DHT22;11707;50.830;4.364;2024-02-21T07:56:10;9.80;99.90
23079;DHT22;11707;50.830;4.364;2024-02-21T07:58:36;9.90;99.90
23079;DHT22;11707;50.830;4.364;2024-02-21T08:01:02;10.10;99.90
23079;DHT22;11707;50.830;4.364;2024-02-21T08:03:27;10.20;98.90
23079;DHT22;11707;50.830;4.364;2024-02-21T08:05:53;10.10;96.20
23079;DHT22;11707;50.830;4.364;2024-02-21T08:08:21;10.00;97.60
23079;DHT22;11707;50.830;4.364;2024-02-21T08:10:48;10.10;96.40
23079;DHT22;11707;50.830;4.364;2024-02-21T08:13:14;10.10;93.20
23079;DHT22;11707;50.830;4.364;2024-02-21T08:15:42;10.10;94.90
23079;DHT22;11707;50.830;4.364;2024-02-21T08:18:08;10.00;95.10
23079;DHT22;11707;50.830;4.364;2024-02-21T08:20:34;9.90;95.20
23079;DHT22;11707;50.830;4.364;2024-02-21T08:23:00;9.90;96.60
23079;DHT22;11707;50.830;4.364;2024-02-21T08:25:29;9.90;95.30
23079;DHT22;11707;50.830;4.364;2024-02-21T08:27:58;9.90;94.90
23079;DHT22;11707;50.830;4.364;2024-02-21T08:30:24;9.80;95.60
23079;DHT22;11707;50.830;4.364;2024-02-21T08:32:50;9.80;96.00
23079;DHT22;11707;50.830;4.364;2024-02-21T08:35:16;9.80;95.40
23079;DHT22;11707;50.830;4.364;2024-02-21T08:37:44;9.70;95.90
23079;DHT22;11707;50.830;4.364;2024-02-21T08:40:13;9.90;97.40
23079;DHT22;11707;50.830;4.364;2024-02-21T08:42:41;10.00;94.90
23079;DHT22;11707;50.830;4.364;2024-02-21T08:45:08;10.00;94.40
23079;DHT22;11707;50.830;4.364;2024-02-21T08:47:33;10.00;93.00
23079;DHT22;11707;50.830;4.364;2024-02-21T08:50:01;9.90;94.00
23079;DHT22;11707;50.830;4.364;2024-02-21T08:52:27;10.00;94.80
23079;DHT22;11707;50.830;4.364;2024-02-21T08:54:53;9.90;92.50
23079;DHT22;11707;50.830;4.364;2024-02-21T08:57:19;10.00;93.30
23079;DHT22;11707;50.830;4.364;2024-02-21T08:59:47;10.00;92.10
23079;DHT22;11707;50.830;4.364;2024-02-21T09:02:14;10.00;91.30
23079;DHT22;11707;50.830;4.364;2024-02-21T09:04:42;10.00;90.50
23079;DHT22;11707;50.830;4.364;2024-02-21T09:07:07;10.10;88.00
23079;DHT22;11707;50.830;4.364;2024-02-21T09:09:33;10.10;85.80
23079;DHT22;11707;50.830;4.364;2024-02-21T09:11:59;10.20;83.40
23079;DHT22;11707;50.830;4.364;2024-02-21T09:14:32;10.10;82.60
23079;DHT22;11707;50.830;4.364;2024-02-21T09:16:57;10.10;84.80
23079;DHT22;11707;50.830;4.364;2024-02-21T09:19:23;10.20;81.20
23079;DHT22;11707;50.830;4.364;2024-02-21T09:21:49;10.20;81.00
23079;DHT22;11707;50.830;4.364;2024-02-21T09:24:15;10.10;84.90
23079;DHT22;11707;50.830;4.364;2024-02-21T09:26:41;10.10;86.10
23079;DHT22;11707;50.830;4.364;2024-02-21T09:29:08;10.20;85.50
23079;DHT22;11707;50.830;4.364;2024-02-21T09:31:34;10.30;83.20
23079;DHT22;11707;50.830;4.364;2024-02-21T09:34:00;10.30;76.70
23079;DHT22;11707;50.830;4.364;2024-02-21T09:36:26;10.30;78.80
23079;DHT22;11707;50.830;4.364;2024-02-21T09:38:52;10.30;71.20
23079;DHT22;11707;50.830;4.364;2024-02-21T09:41:26;10.30;78.70
23079;DHT22;11707;50.830;4.364;2024-02-21T09:43:57;10.40;76.80
23079;DHT22;11707;50.830;4.364;2024-02-21T09:47:02;10.40;75.60
23079;DHT22;11707;50.830;4.364;2024-02-21T09:49:31;10.50;72.60
23079;DHT22;11707;50.830;4.364;2024-02-21T09:52:05;10.50;68.00
23079;DHT22;11707;50.830;4.364;2024-02-21T09:54:35;10.40;70.20
23079;DHT22;11707;50.830;4.364;2024-02-21T09:57:02;10.40;72.20
23079;DHT22;11707;50.830;4.364;2024-02-21T09:59:32;10.60;67.50
23079;DHT22;11707;50.830;4.364;2024-02-21T10:01:58;10.60;64.70
23079;DHT22;11707;50.830;4.364;2024-02-21T10:04:25;10.70;59.90
23079;DHT22;11707;50.830;4.364;2024-02-21T10:06:52;10.70;58.30
23079;DHT22;11707;50.830;4.364;2024-02-21T10:09:31;10.70;57.50
23079;DHT22;11707;50.830;4.364;2024-02-21T10:12:09;10.60;59.90
23079;DHT22;11707;50.830;4.364;2024-02-21T10:14:35;10.60;61.80
23079;DHT22;11707;50.830;4.364;2024-02-21T10:17:01;10.60;61.40
23079;DHT22;11707;50.830;4.364;2024-02-21T10:19:28;10.70;60.70
23079;DHT22;11707;50.830;4.364;2024-02-21T10:22:08;10.80;58.80
23079;DHT22;11707;50.830;4.364;2024-02-21T10:24:35;10.80;56.80
23079;DHT22;11707;50.830;4.364;2024-02-21T10:27:07;10.80;55.70
23079;DHT22;11707;50.830;4.364;2024-02-21T10:29:38;10.80;55.60
23079;DHT22;11707;50.830;4.364;2024-02-21T10:32:11;10.90;53.50
23079;DHT22;11707;50.830;4.364;2024-02-21T10:34:39;11.00;47.20
23079;DHT22;11707;50.830;4.364;2024-02-21T10:37:06;11.00;46.90
23079;DHT22;11707;50.830;4.364;2024-02-21T10:39:43;11.00;46.70
23079;DHT22;11707;50.830;4.364;2024-02-21T10:42:17;11.20;37.30
23079;DHT22;11707;50.830;4.364;2024-02-21T10:44:46;11.20;38.80
23079;DHT22;11707;50.830;4.364;2024-02-21T10:47:16;11.20;39.30
23079;DHT22;11707;50.830;4.364;2024-02-21T10:49:49;11.10;42.20
23079;DHT22;11707;50.830;4.364;2024-02-21T10:53:41;11.30;35.40
23079;DHT22;11707;50.830;4.364;2024-02-21T10:55:41;11.20;32.30
23079;DHT22;11707;50.830;4.364;2024-02-21T10:58:13;11.00;37.20
23079;DHT22;11707;50.830;4.364;2024-02-21T11:00:40;11.00;36.70
23079;DHT22;11707;50.830;4.364;2024-02-21T11:03:05;10.90;38.20
23079;DHT22;11707;50.830;4.364;2024-02-21T11:05:32;11.00;38.80
23079;DHT22;11707;50.830;4.364;2024-02-21T11:07:58;10.90;37.20
23079;DHT22;11707;50.830;4.364;2024-02-21T11:10:25;11.00;38.90
23079;DHT22;11707;50.830;4.364;2024-02-21T11:13:09;11.10;32.70
23079;DHT22;11707;50.830;4.364;2024-02-21T11:15:35;11.00;35.70
23079;DHT22;11707;50.830;4.364;2024-02-21T11:18:01;11.00;36.40
23079;DHT22;11707;50.830;4.364;2024-02-21T11:20:37;11.10;34.50
23079;DHT22;11707;50.830;4.364;2024-02-21T11:23:03;11.10;31.60
23079;DHT22;11707;50.830;4.364;2024-02-21T11:25:32;11.10;33.40
23079;DHT22;11707;50.830;4.364;2024-02-21T11:28:04;11.00;39.00
23079;DHT22;11707;50.830;4.364;2024-02-21T11:30:31;11.00;39.40
23079;DHT22;11707;50.830;4.364;2024-02-21T11:33:06;11.10;35.60
23079;DHT22;11707;50.830;4.364;2024-02-21T11:35:33;11.20;29.70
23079;DHT22;11707;50.830;4.364;2024-02-21T11:38:14;11.10;28.40
23079;DHT22;11707;50.830;4.364;2024-02-21T11:40:46;11.10;31.80
23079;DHT22;11707;50.830;4.364;2024-02-21T11:43:12;11.20;32.10
23079;DHT22;11707;50.830;4.364;2024-02-21T11:45:38;11.10;30.70
23079;DHT22;11707;50.830;4.364;2024-02-21T11:48:07;11.00;31.90
23079;DHT22;11707;50.830;4.364;2024-02-21T11:50:36;10.90;32.90
23079;DHT22;11707;50.830;4.364;2024-02-21T11:53:05;10.80;44.80
23079;DHT22;11707;50.830;4.364;2024-02-21T11:55:31;10.80;43.40
23079;DHT22;11707;50.830;4.364;2024-02-21T11:57:57;10.70;44.20
23079;DHT22;11707;50.830;4.364;2024-02-21T12:00:23;10.70;51.10
23079;DHT22;11707;50.830;4.364;2024-02-21T12:02:51;10.80;49.00
23079;DHT22;11707;50.830;4.364;2024-02-21T12:05:20;10.80;47.50
23079;DHT22;11707;50.830;4.364;2024-02-21T12:07:48;10.90;49.00
23079;DHT22;11707;50.830;4.364;2024-02-21T12:10:14;11.00;40.50
23079;DHT22;11707;50.830;4.364;2024-02-21T12:12:40;11.00;41.50
23079;DHT22;11707;50.830;4.364;2024-02-21T12:15:07;11.10;40.50
23079;DHT22;11707;50.830;4.364;2024-02-21T12:17:36;11.20;33.70
23079;DHT22;11707;50.830;4.364;2024-02-21T12:20:03;11.10;35.80
23079;DHT22;11707;50.830;4.364;2024-02-21T12:22:44;11.00;42.50
23079;DHT22;11707;50.830;4.364;2024-02-21T12:25:21;10.90;39.20
23079;DHT22;11707;50.830;4.364;2024-02-21T12:27:52;10.90;44.30
23079;DHT22;11707;50.830;4.364;2024-02-21T12:30:18;10.80;51.10
23079;DHT22;11707;50.830;4.364;2024-02-21T12:32:45;10.90;49.50
23079;DHT22;11707;50.830;4.364;2024-02-21T12:35:11;11.00;48.70
23079;DHT22;11707;50.830;4.364;2024-02-21T12:37:37;10.90;44.50
23079;DHT22;11707;50.830;4.364;2024-02-21T12:40:08;11.00;49.10
23079;DHT22;11707;50.830;4.364;2024-02-21T12:42:34;11.10;43.90
23079;DHT22;11707;50.830;4.364;2024-02-21T12:45:01;10.90;46.80
23079;DHT22;11707;50.830;4.364;2024-02-21T12:47:28;11.00;51.20
23079;DHT22;11707;50.830;4.364;2024-02-21T12:49:54;10.90;47.10
23079;DHT22;11707;50.830;4.364;2024-02-21T12:52:19;11.10;47.60
23079;DHT22;11707;50.830;4.364;2024-02-21T12:54:45;11.20;40.00
23079;DHT22;11707;50.830;4.364;2024-02-21T12:57:11;11.00;43.50
23079;DHT22;11707;50.830;4.364;2024-02-21T12:59:39;11.10;41.60
23079;DHT22;11707;50.830;4.364;2024-02-21T13:02:05;11.20;41.10
23079;DHT22;11707;50.830;4.364;2024-02-21T13:04:31;11.20;42.50
23079;DHT22;11707;50.830;4.364;2024-02-21T13:06:57;11.30;36.00
23079;DHT22;11707;50.830;4.364;2024-02-21T13:09:23;11.30;34.30
23079;DHT22;11707;50.830;4.364;2024-02-21T13:11:51;11.30;31.90
23079;DHT22;11707;50.830;4.364;2024-02-21T13:14:17;11.30;35.70
23079;DHT22;11707;50.830;4.364;2024-02-21T13:16:42;11.20;40.70
23079;DHT22;11707;50.830;4.364;2024-02-21T13:19:08;11.30;33.00
23079;DHT22;11707;50.830;4.364;2024-02-21T13:21:35;11.40;33.70
23079;DHT22;11707;50.830;4.364;2024-02-21T13:24:01;11.40;27.50
23079;DHT22;11707;50.830;4.364;2024-02-21T13:26:29;11.40;33.30
23079;DHT22;11707;50.830;4.364;2024-02-21T13:28:54;11.40;36.90
23079;DHT22;11707;50.830;4.364;2024-02-21T13:31:21;11.20;38.30
23079;DHT22;11707;50.830;4.364;2024-02-21T13:33:46;11.10;43.30
23079;DHT22;11707;50.830;4.364;2024-02-21T13:36:15;11.30;51.30
23079;DHT22;11707;50.830;4.364;2024-02-21T13:38:40;11.30;61.00
23079;DHT22;11707;50.830;4.364;2024-02-21T13:41:08;11.30;52.20
23079;DHT22;11707;50.830;4.364;2024-02-21T13:43:36;11.30;55.50
23079;DHT22;11707;50.830;4.364;2024-02-21T13:46:04;11.30;58.20
23079;DHT22;11707;50.830;4.364;2024-02-21T13:48:30;11.30;48.60
23079;DHT22;11707;50.830;4.364;2024-02-21T13:50:59;11.30;37.00
23079;DHT22;11707;50.830;4.364;2024-02-21T13:53:25;11.10;33.90
23079;DHT22;11707;50.830;4.364;2024-02-21T13:55:55;11.00;40.70
23079;DHT22;11707;50.830;4.364;2024-02-21T13:58:21;10.90;50.20
23079;DHT22;11707;50.830;4.364;2024-02-21T14:00:47;10.80;64.80
23079;DHT22;11707;50.830;4.364;2024-02-21T14:03:15;10.70;77.30
23079;DHT22;11707;50.830;4.364;2024-02-21T14:05:41;10.90;72.90
23079;DHT22;11707;50.830;4.364;2024-02-21T14:08:07;10.80;62.00
23079;DHT22;11707;50.830;4.364;2024-02-21T14:10:33;10.60;74.20
23079;DHT22;11707;50.830;4.364;2024-02-21T14:13:00;10.60;82.40
23079;DHT22;11707;50.830;4.364;2024-02-21T14:15:26;10.50;88.80
23079;DHT22;11707;50.830;4.364;2024-02-21T14:17:52;10.50;92.40
23079;DHT22;11707;50.830;4.364;2024-02-21T14:20:17;10.40;93.50
23079;DHT22;11707;50.830;4.364;2024-02-21T14:22:43;10.40;97.10
23079;DHT22;11707;50.830;4.364;2024-02-21T14:25:09;10.30;99.00
23079;DHT22;11707;50.830;4.364;2024-02-21T14:27:35;10.30;99.90
23079;DHT22;11707;50.830;4.364;2024-02-21T14:30:04;10.20;99.90
23079;DHT22;11707;50.830;4.364;2024-02-21T14:32:37;10.20;99.90
23079;DHT22;11707;50.830;4.364;2024-02-21T14:35:02;10.20;99.90
23079;DHT22;11707;50.830;4.364;2024-02-21T14:37:28;10.10;99.90
23079;DHT22;11707;50.830;4.364;2024-02-21T14:39:54;10.10;99.90
23079;DHT22;11707;50.830;4.364;2024-02-21T14:42:19;10.00;99.90
23079;DHT22;11707;50.830;4.364;2024-02-21T14:44:45;10.00;99.90
23079;DHT22;11707;50.830;4.364;2024-02-21T14:47:13;10.00;99.90
23079;DHT22;11707;50.830;4.364;2024-02-21T14:49:39;10.00;99.90
23079;DHT22;11707;50.830;4.364;2024-02-21T14:52:04;9.90;99.90
23079;DHT22;11707;50.830;4.364;2024-02-21T14:54:30;10.00;99.90
23079;DHT22;11707;50.830;4.364;2024-02-21T14:56:58;9.90;99.90
23079;DHT22;11707;50.830;4.364;2024-02-21T14:59:24;9.90;99.90
23079;DHT22;11707;50.830;4.364;2024-02-21T15:01:49;9.90;99.90
23079;DHT22;11707;50.830;4.364;2024-02-21T15:04:15;9.90;99.90
23079;DHT22;11707;50.830;4.364;2024-02-21T15:06:41;9.90;99.90
23079;DHT22;11707;50.830;4.364;2024-02-21T15:09:07;10.00;99.90
23079;DHT22;11707;50.830;4.364;2024-02-21T15:11:33;10.00;99.90
23079;DHT22;11707;50.830;4.364;2024-02-21T15:13:58;9.90;99.90
23079;DHT22;11707;50.830;4.364;2024-02-21T15:16:24;9.80;99.90
23079;DHT22;11707;50.830;4.364;2024-02-21T15:18:50;9.80;99.90
23079;DHT22;11707;50.830;4.364;2024-02-21T15:21:18;9.70;99.90
23079;DHT22;11707;50.830;4.364;2024-02-21T15:23:44;9.70;99.90
23079;DHT22;11707;50.830;4.364;2024-02-21T15:26:12;9.60;99.90
23079;DHT22;11707;50.830;4.364;2024-02-21T15:28:41;9.70;99.90
23079;DHT22;11707;50.830;4.364;2024-02-21T15:31:07;9.60;99.90
23079;DHT22;11707;50.830;4.364;2024-02-21T15:33:32;9.70;99.90
23079;DHT22;11707;50.830;4.364;2024-02-21T15:35:58;9.70;99.90
23079;DHT22;11707;50.830;4.364;2024-02-21T15:38:26;9.70;99.90